Time;durP1;ratioP1;P1;durP2;ratioP2;P2;SDS_P1;SDS_P2;PMS_P1;PMS_P2;Temp;Humidity;BMP_temperature;BMP_pressure;BME280_temperature;BME280_humidity;BME280_pressure;Samples;Min_cycle;Max_cycle;Signal;HPM_P1;HPM_P2
2022/10/08 00:02:06;;;;;;;4.63;4.23;;;;;;;23.09;61.32;97808.06;5045927;28;20197;-32
2022/10/08 00:04:33;;;;;;;4.77;4.37;;;;;;;23.08;61.34;97798.63;5047569;28;20581;-31
2022/10/08 00:06:59;;;;;;;5.70;4.50;;;;;;;23.07;61.20;97797.75;5047738;28;20336;-31
2022/10/08 00:09:26;;;;;;;4.40;4.00;;;;;;;23.06;61.39;97795.16;5047587;28;20216;-31
2022/10/08 00:11:52;;;;;;;4.73;4.23;;;;;;;23.07;61.24;97800.31;5047667;28;20205;-32
2022/10/08 00:14:22;;;;;;;4.77;4.33;;;;;;;23.07;61.24;97797.75;5044925;28;20714;-31
2022/10/08 00:16:48;;;;;;;4.73;4.30;;;;;;;23.07;61.27;97795.19;5044423;28;20207;-31
2022/10/08 00:19:15;;;;;;;4.73;4.00;;;;;;;23.07;61.00;97786.66;5047069;28;20599;-31
2022/10/08 00:21:42;;;;;;;4.67;4.27;;;;;;;23.07;61.05;97791.78;5029130;28;20204;-31
2022/10/08 00:24:14;;;;;;;4.50;4.10;;;;;;;23.08;61.11;97790.94;5046435;28;20213;-32
2022/10/08 00:26:41;;;;;;;4.40;4.00;;;;;;;23.07;61.05;97786.66;5046636;28;20586;-31
2022/10/08 00:29:10;;;;;;;4.10;3.80;;;;;;;23.07;61.09;97781.53;5041131;28;20215;-31
2022/10/08 00:31:39;;;;;;;4.60;4.20;;;;;;;23.07;61.16;97784.94;5047115;28;20203;-31
2022/10/08 00:34:07;;;;;;;4.70;3.77;;;;;;;23.07;61.13;97782.38;5046201;28;20204;-31
2022/10/08 00:36:36;;;;;;;4.33;3.90;;;;;;;23.07;61.11;97784.09;5046653;28;20208;-31
2022/10/08 00:39:22;;;;;;;4.20;3.90;;;;;;;23.04;61.12;97760.94;5046856;28;20619;-32
2022/10/08 00:41:51;;;;;;;4.47;4.07;;;;;;;23.06;61.22;97759.25;5055494;28;20205;-31
2022/10/08 00:44:49;;;;;;;4.30;3.90;;;;;;;23.06;61.12;97764.38;5047132;28;20228;-31
2022/10/08 00:47:34;;;;;;;4.10;3.80;;;;;;;23.04;61.28;97755.81;5044851;28;20713;-32
2022/10/08 00:50:15;;;;;;;4.20;3.80;;;;;;;23.06;61.22;97762.69;5031130;28;20205;-31
2022/10/08 00:52:54;;;;;;;4.60;4.20;;;;;;;23.06;61.13;97760.13;5045959;28;20209;-31
2022/10/08 00:55:21;;;;;;;4.30;3.90;;;;;;;23.00;61.18;97757.41;5035128;28;20211;-31
2022/10/08 00:57:48;;;;;;;4.07;3.77;;;;;;;23.06;60.94;97762.69;5028724;28;20235;-31
2022/10/08 01:00:18;;;;;;;4.03;3.73;;;;;;;23.06;61.36;97761.81;5024986;28;20352;-31
2022/10/08 01:02:44;;;;;;;4.57;4.17;;;;;;;23.05;61.15;97753.28;5042549;28;20418;-31
2022/10/08 01:05:12;;;;;;;4.27;3.87;;;;;;;23.02;61.22;97745.50;5045901;28;20594;-32
2022/10/08 01:07:51;;;;;;;4.50;4.10;;;;;;;23.06;61.10;97754.13;5054570;28;20407;-31
2022/10/08 01:10:42;;;;;;;4.13;3.80;;;;;;;23.05;61.03;97753.28;5013014;28;20216;-31
2022/10/08 01:13:16;;;;;;;4.07;3.77;;;;;;;23.03;61.08;97744.69;5022965;28;20201;-31
2022/10/08 01:15:51;;;;;;;4.30;3.77;;;;;;;23.05;61.07;97753.28;5046311;28;20212;-31
2022/10/08 01:18:36;;;;;;;4.00;3.70;;;;;;;23.06;61.06;97751.56;5054115;28;20220;-31
2022/10/08 01:21:17;;;;;;;4.10;3.73;;;;;;;23.06;60.99;97749.88;5046923;28;20211;-31
2022/10/08 01:24:08;;;;;;;4.20;3.90;;;;;;;23.06;60.83;97742.19;5043279;28;20209;-31
2022/10/08 01:26:55;;;;;;;4.53;4.13;;;;;;;22.96;60.77;97727.41;5045416;28;20201;-31
2022/10/08 01:29:39;;;;;;;4.47;4.07;;;;;;;23.06;61.07;97738.75;5060177;28;20201;-31
2022/10/08 01:32:07;;;;;;;4.53;4.00;;;;;;;23.06;60.90;97731.94;5014904;28;20796;-31
2022/10/08 01:34:40;;;;;;;3.90;3.60;;;;;;;23.05;60.94;97735.34;5016013;28;20209;-31
2022/10/08 01:37:10;;;;;;;4.10;3.80;;;;;;;23.05;60.93;97743.03;5051295;28;20228;-31
2022/10/08 01:39:36;;;;;;;3.90;3.60;;;;;;;22.93;60.94;97714.50;5040296;28;20218;-31
2022/10/08 01:42:04;;;;;;;4.47;3.70;;;;;;;23.05;60.92;97744.72;5047976;28;20204;-31
2022/10/08 01:45:03;;;;;;;4.03;3.73;;;;;;;22.97;60.93;97716.31;5031868;28;20209;-31
2022/10/08 01:47:29;;;;;;;4.30;3.90;;;;;;;23.03;60.73;97729.28;5027954;28;20240;-31
2022/10/08 01:50:02;;;;;;;4.27;3.87;;;;;;;22.93;60.85;97708.50;5031568;28;20628;-31
2022/10/08 01:52:32;;;;;;;4.00;3.70;;;;;;;23.05;61.11;97727.66;5047153;28;20205;-31
2022/10/08 01:55:01;;;;;;;4.07;3.77;;;;;;;23.06;60.92;97731.06;5020879;28;20208;-31
2022/10/08 01:57:27;;;;;;;4.37;3.97;;;;;;;22.97;60.87;97715.44;5028300;28;20224;-31
2022/10/08 01:59:58;;;;;;;4.47;4.00;;;;;;;23.06;60.86;97731.06;5044240;28;20753;-31
2022/10/08 02:02:24;;;;;;;3.90;3.60;;;;;;;23.05;60.95;97732.78;5047601;28;20299;-31
2022/10/08 02:04:53;;;;;;;4.17;3.87;;;;;;;23.00;60.96;97721.53;5031218;28;20295;-31
2022/10/08 02:07:29;;;;;;;3.90;3.60;;;;;;;23.07;60.82;97736.22;5055979;28;20225;-31
2022/10/08 02:10:22;;;;;;;4.33;3.93;;;;;;;23.06;60.85;97728.50;5055976;28;20205;-31
2022/10/08 02:12:49;;;;;;;4.20;3.90;;;;;;;23.06;60.83;97729.38;5021526;28;20204;-31
2022/10/08 02:15:21;;;;;;;3.90;3.60;;;;;;;23.07;60.83;97735.38;5046544;28;20599;-31
2022/10/08 02:18:29;;;;;;;4.30;4.00;;;;;;;23.06;60.62;97729.38;5049429;28;20225;-31
2022/10/08 02:21:05;;;;;;;4.17;3.77;;;;;;;23.06;60.77;97728.50;4999738;28;20233;-31
2022/10/08 02:23:51;;;;;;;4.30;3.93;;;;;;;23.06;60.85;97721.69;5035486;28;20555;-31
2022/10/08 02:26:19;;;;;;;4.23;3.83;;;;;;;23.07;60.72;97730.25;5048620;28;20228;-31
2022/10/08 02:28:57;;;;;;;4.20;3.90;;;;;;;23.04;60.81;97714.78;5028327;28;20243;-31
2022/10/08 02:31:39;;;;;;;4.30;3.90;;;;;;;23.04;60.71;97722.47;5013654;28;20217;-31
2022/10/08 02:34:11;;;;;;;4.30;3.90;;;;;;;23.04;60.86;97713.06;5048133;28;20694;-31
2022/10/08 02:36:40;;;;;;;4.33;3.93;;;;;;;23.07;60.56;97717.44;5031193;28;20196;-31
2022/10/08 02:39:07;;;;;;;4.17;3.87;;;;;;;23.07;60.95;97715.72;5030789;28;20217;-31
2022/10/08 02:41:36;;;;;;;4.30;3.90;;;;;;;23.04;60.70;97717.34;5030153;28;20679;-31
2022/10/08 02:44:05;;;;;;;4.57;4.20;;;;;;;23.07;60.69;97720.00;5048958;28;20689;-31
2022/10/08 02:46:34;;;;;;;4.10;3.80;;;;;;;23.07;60.44;97722.56;5016922;28;20200;-31
2022/10/08 02:49:07;;;;;;;5.03;3.83;;;;;;;23.07;60.69;97722.56;5033337;28;20244;-31
2022/10/08 02:51:36;;;;;;;4.10;3.77;;;;;;;23.07;60.59;97718.28;5016977;28;20563;-31
2022/10/08 02:54:05;;;;;;;4.43;3.87;;;;;;;23.08;60.62;97717.47;5033705;28;20680;-31
2022/10/08 02:56:48;;;;;;;4.93;4.53;;;;;;;23.07;60.63;97720.00;5044653;28;20208;-31
2022/10/08 02:59:16;;;;;;;4.00;3.70;;;;;;;23.07;60.74;97723.41;5026471;28;20227;-31
2022/10/08 03:01:57;;;;;;;4.20;3.90;;;;;;;23.05;60.72;97722.53;5051188;28;20562;-31
2022/10/08 03:04:46;;;;;;;4.70;4.30;;;;;;;23.07;60.61;97725.97;5012119;28;20196;-31
2022/10/08 03:07:14;;;;;;;4.13;3.77;;;;;;;23.08;60.70;97737.09;5032607;28;20221;-31
2022/10/08 03:09:44;;;;;;;4.57;4.17;;;;;;;23.08;60.49;97729.41;5031348;28;20678;-31
2022/10/08 03:12:11;;;;;;;4.40;3.80;;;;;;;23.02;60.45;97719.00;5013981;28;20198;-31
2022/10/08 03:14:39;;;;;;;4.10;3.80;;;;;;;22.99;60.56;97721.47;5016832;28;20667;-31
2022/10/08 03:17:06;;;;;;;4.40;4.00;;;;;;;23.07;60.60;97725.13;5018138;28;20702;-31
2022/10/08 03:19:33;;;;;;;4.73;4.33;;;;;;;23.06;60.47;97729.38;5027760;28;20217;-31
2022/10/08 03:21:59;;;;;;;4.37;4.07;;;;;;;23.06;60.32;97725.94;5050803;28;20197;-31
2022/10/08 03:24:26;;;;;;;4.10;3.80;;;;;;;23.08;60.39;97726.84;5032961;28;20200;-31
2022/10/08 03:26:53;;;;;;;5.80;4.30;;;;;;;23.07;60.54;97725.13;5049642;28;20197;-31
2022/10/08 03:29:19;;;;;;;4.40;4.00;;;;;;;23.07;60.54;97725.13;5047455;28;20218;-31
2022/10/08 03:31:49;;;;;;;4.67;4.27;;;;;;;23.07;60.52;97727.69;5049917;28;20671;-31
2022/10/08 03:34:15;;;;;;;4.17;3.40;;;;;;;23.04;60.47;97718.19;5050193;28;20557;-31
2022/10/08 03:36:42;;;;;;;4.47;4.13;;;;;;;23.00;60.35;97715.53;5049668;28;20197;-31
2022/10/08 03:39:11;;;;;;;4.67;4.23;;;;;;;23.07;60.58;97723.41;5051492;28;20207;-31
2022/10/08 03:41:38;;;;;;;5.90;4.57;;;;;;;23.03;60.58;97719.03;5049997;28;20224;-31
2022/10/08 03:44:09;;;;;;;4.40;4.07;;;;;;;23.06;60.32;97729.38;5032859;28;20211;-31
2022/10/08 03:46:36;;;;;;;4.40;4.00;;;;;;;23.07;60.45;97727.69;5049347;28;20196;-31
2022/10/08 03:49:02;;;;;;;4.03;3.73;;;;;;;23.06;60.48;97731.94;5049705;28;20219;-31
2022/10/08 03:51:29;;;;;;;4.30;4.00;;;;;;;23.03;60.60;97726.72;5049489;28;20263;-31
2022/10/08 03:53:56;;;;;;;4.50;4.10;;;;;;;23.06;60.51;97739.63;5051013;28;20216;-31
2022/10/08 03:56:23;;;;;;;4.90;3.97;;;;;;;23.04;60.21;97737.88;5051033;28;20201;-31
2022/10/08 03:59:08;;;;;;;4.60;4.20;;;;;;;23.06;60.49;97739.63;5050767;28;20224;-31
2022/10/08 04:01:34;;;;;;;4.57;4.17;;;;;;;23.06;60.41;97744.75;5017086;28;20634;-31
2022/10/08 04:04:01;;;;;;;4.37;3.97;;;;;;;23.06;60.46;97742.19;5033015;28;20225;-31
2022/10/08 04:06:27;;;;;;;4.60;4.20;;;;;;;23.06;60.39;97744.75;5050460;28;20790;-31
2022/10/08 04:08:59;;;;;;;3.97;3.63;;;;;;;23.06;60.46;97744.75;5051264;28;20702;-31
2022/10/08 04:11:27;;;;;;;4.17;3.87;;;;;;;23.05;60.55;97744.72;5051631;28;20544;-31
2022/10/08 04:13:53;;;;;;;4.23;3.83;;;;;;;23.06;60.29;97752.44;5051300;28;20204;-31
2022/10/08 04:16:20;;;;;;;4.50;4.10;;;;;;;23.06;60.49;97744.75;5050365;28;20197;-31
2022/10/08 04:18:46;;;;;;;4.20;3.90;;;;;;;23.06;60.47;97743.88;5048962;28;20221;-31
2022/10/08 04:21:14;;;;;;;4.50;4.10;;;;;;;23.06;60.29;97737.06;5050706;28;20217;-31
2022/10/08 04:23:41;;;;;;;4.40;4.10;;;;;;;23.06;60.55;97734.50;5051002;28;20200;-31
2022/10/08 04:26:08;;;;;;;4.17;3.80;;;;;;;23.00;60.46;97731.78;5049936;28;20586;-31
2022/10/08 04:28:35;;;;;;;4.43;4.03;;;;;;;23.03;60.33;97736.09;5050731;28;20595;-31
2022/10/08 04:31:12;;;;;;;4.50;4.10;;;;;;;23.01;60.31;97732.66;5048190;28;20232;-31
2022/10/08 04:33:38;;;;;;;4.60;4.20;;;;;;;23.03;60.24;97736.97;5049192;28;20211;-31
2022/10/08 04:36:15;;;;;;;4.53;4.00;;;;;;;23.06;60.16;97754.13;5050027;28;20208;-31
2022/10/08 04:38:42;;;;;;;4.43;4.03;;;;;;;23.06;60.19;97749.00;5049018;28;20231;-31
2022/10/08 04:41:28;;;;;;;4.40;4.10;;;;;;;23.05;60.25;97758.41;5043782;28;20215;-31
2022/10/08 04:43:58;;;;;;;4.60;4.20;;;;;;;23.06;60.19;97744.75;5048907;28;20215;-31
2022/10/08 04:46:25;;;;;;;5.30;4.30;;;;;;;23.05;60.33;97749.84;5050794;28;20201;-31
2022/10/08 04:48:52;;;;;;;4.40;4.00;;;;;;;23.05;60.29;97753.28;5032342;28;20259;-31
2022/10/08 04:51:19;;;;;;;4.73;4.33;;;;;;;23.04;60.26;97751.53;5049987;28;20197;-31
2022/10/08 04:53:46;;;;;;;4.00;3.70;;;;;;;23.04;60.34;97751.53;5045941;28;20198;-31
2022/10/08 04:56:23;;;;;;;4.70;4.30;;;;;;;23.05;60.38;97757.53;5044076;28;20666;-31
2022/10/08 04:58:50;;;;;;;4.57;4.17;;;;;;;22.97;60.28;97743.63;5048242;28;20235;-31
2022/10/08 05:01:17;;;;;;;4.53;4.10;;;;;;;22.99;60.24;97753.13;5031691;28;20228;-31
2022/10/08 05:03:46;;;;;;;5.10;4.50;;;;;;;23.05;60.55;97763.53;5048728;28;20193;-31
2022/10/08 05:06:16;;;;;;;4.33;3.93;;;;;;;23.04;60.29;97761.78;5051693;28;20581;-31
2022/10/08 05:08:43;;;;;;;4.80;4.40;;;;;;;23.05;60.08;97762.66;5051806;28;20221;-31
2022/10/08 05:11:09;;;;;;;4.93;4.53;;;;;;;23.04;60.24;97761.78;5052939;28;20189;-31
2022/10/08 05:13:36;;;;;;;4.60;4.20;;;;;;;23.01;60.50;97755.72;5054244;28;20681;-31
2022/10/08 05:16:07;;;;;;;4.33;4.00;;;;;;;23.01;60.31;97753.16;5045622;28;20205;-31
2022/10/08 05:18:34;;;;;;;4.27;3.90;;;;;;;23.05;60.20;97765.22;5040655;28;20617;-31
2022/10/08 05:21:05;;;;;;;4.70;4.23;;;;;;;22.98;60.14;97751.38;5044801;28;20248;-31
2022/10/08 05:23:31;;;;;;;4.90;4.50;;;;;;;23.05;60.27;97762.66;5041765;28;20197;-31
2022/10/08 05:25:58;;;;;;;4.30;4.00;;;;;;;23.04;60.48;97766.91;5045849;28;20232;-31
2022/10/08 05:28:24;;;;;;;6.97;4.60;;;;;;;23.05;60.31;97762.66;5047480;28;20228;-31
2022/10/08 05:30:51;;;;;;;4.63;4.23;;;;;;;23.03;60.44;97761.75;5052378;28;20193;-31
2022/10/08 05:33:18;;;;;;;4.80;4.40;;;;;;;23.02;60.71;97766.03;5053149;28;20574;-31
2022/10/08 05:35:44;;;;;;;4.90;4.50;;;;;;;23.05;60.30;97771.22;5045302;28;20336;-31
2022/10/08 05:38:11;;;;;;;4.77;4.37;;;;;;;23.05;60.29;97772.91;5043450;28;20718;-31
2022/10/08 05:40:37;;;;;;;6.90;4.73;;;;;;;23.04;60.38;97772.03;5043356;28;20219;-31
2022/10/08 05:43:04;;;;;;;4.87;4.40;;;;;;;23.03;60.13;97774.56;5047134;28;20676;-31
2022/10/08 05:45:30;;;;;;;4.80;4.40;;;;;;;23.05;60.33;97788.28;5046809;28;20208;-31
2022/10/08 05:47:57;;;;;;;4.70;4.30;;;;;;;23.05;60.14;97786.59;5041602;28;20228;-31
2022/10/08 05:50:23;;;;;;;5.13;4.63;;;;;;;23.05;60.08;97785.72;5039852;28;20198;-31
2022/10/08 05:52:50;;;;;;;4.83;4.43;;;;;;;22.98;59.98;97769.31;5049250;28;20212;-32
2022/10/08 05:55:16;;;;;;;4.87;4.47;;;;;;;23.05;60.00;97780.59;5050449;28;20689;-31
2022/10/08 05:57:43;;;;;;;5.07;4.57;;;;;;;23.05;60.14;97778.91;5051366;28;20217;-31
2022/10/08 06:00:10;;;;;;;4.90;4.33;;;;;;;23.04;60.16;97782.28;5057205;28;20243;-31
2022/10/08 06:02:36;;;;;;;5.10;4.70;;;;;;;23.05;60.21;97780.59;5053396;28;20587;-31
2022/10/08 06:05:03;;;;;;;4.83;4.43;;;;;;;23.04;60.07;97781.44;5047722;28;20675;-31
2022/10/08 06:07:30;;;;;;;4.80;4.40;;;;;;;23.04;60.09;97786.56;5046581;28;20216;-31
2022/10/08 06:09:56;;;;;;;5.20;4.70;;;;;;;23.04;60.16;97791.69;5051382;28;20587;-31
2022/10/08 06:12:23;;;;;;;5.40;4.90;;;;;;;23.05;60.08;97796.88;5047534;28;20208;-31
2022/10/08 06:14:49;;;;;;;5.30;4.87;;;;;;;23.01;60.20;97786.47;5052424;28;20197;-31
2022/10/08 06:17:16;;;;;;;5.67;5.17;;;;;;;23.00;60.15;97795.84;5035686;28;20864;-31
2022/10/08 06:19:42;;;;;;;5.33;4.33;;;;;;;23.04;60.17;97805.38;5038971;28;20202;-31
2022/10/08 06:22:09;;;;;;;5.00;4.60;;;;;;;23.04;60.21;97813.06;5037887;28;20774;-31
2022/10/08 06:24:35;;;;;;;5.20;4.70;;;;;;;23.05;59.41;97821.63;5035538;28;20206;-31
2022/10/08 06:27:01;;;;;;;4.90;4.50;;;;;;;23.05;59.54;97817.38;5035847;28;20730;-31
2022/10/08 06:29:28;;;;;;;4.87;4.37;;;;;;;23.04;59.93;97828.44;5037358;28;20200;-31
2022/10/08 06:31:54;;;;;;;5.37;4.87;;;;;;;23.05;59.96;97826.75;5038915;28;20201;-31
2022/10/08 06:34:21;;;;;;;5.23;4.73;;;;;;;23.04;60.14;97832.72;5038295;28;20236;-31
2022/10/08 06:36:48;;;;;;;5.03;4.57;;;;;;;23.04;59.89;97828.44;5047783;28;20223;-31
2022/10/08 06:39:15;;;;;;;5.03;4.53;;;;;;;23.05;59.92;97825.06;5049464;28;20197;-31
2022/10/08 06:41:41;;;;;;;5.07;4.63;;;;;;;23.03;60.01;97816.44;5050718;28;20213;-31
2022/10/08 06:44:10;;;;;;;5.47;4.97;;;;;;;23.05;60.02;97814.81;5050893;28;20200;-31
2022/10/08 06:46:36;;;;;;;5.50;5.00;;;;;;;23.05;60.06;97817.38;5050196;28;20235;-31
2022/10/08 06:49:04;;;;;;;4.77;4.37;;;;;;;23.05;60.02;97817.38;5049998;28;20320;-31
2022/10/08 06:51:31;;;;;;;9.00;4.63;;;;;;;23.05;60.05;97819.94;5050168;28;20250;-31
2022/10/08 06:53:58;;;;;;;5.03;4.53;;;;;;;23.04;60.29;97813.06;5047145;28;20200;-31
2022/10/08 06:56:32;;;;;;;5.27;4.77;;;;;;;23.02;60.08;97817.28;5048931;28;20244;-31
2022/10/08 06:58:59;;;;;;;5.33;4.83;;;;;;;22.98;60.08;97812.03;5049471;28;20220;-31
2022/10/08 07:01:25;;;;;;;4.97;4.47;;;;;;;23.06;59.89;97831.03;5048164;28;20213;-31
2022/10/08 07:03:59;;;;;;;4.70;4.30;;;;;;;23.04;60.08;97833.56;5048172;28;20223;-31
2022/10/08 07:06:26;;;;;;;5.10;4.67;;;;;;;23.02;59.99;97827.53;5049875;28;20196;-31
2022/10/08 07:08:53;;;;;;;5.00;4.60;;;;;;;23.05;59.96;97830.19;5041452;28;20973;-31
2022/10/08 07:11:20;;;;;;;5.23;4.67;;;;;;;23.00;59.91;97824.06;5048941;28;20208;-31
2022/10/08 07:13:47;;;;;;;6.10;4.97;;;;;;;23.06;59.87;97836.16;5049447;28;20201;-31
2022/10/08 07:16:20;;;;;;;5.30;4.80;;;;;;;23.03;59.85;97831.84;5047978;28;20616;-31
2022/10/08 07:18:48;;;;;;;5.00;4.50;;;;;;;23.06;59.90;97831.03;5048840;28;20267;-31
2022/10/08 07:21:16;;;;;;;5.03;4.57;;;;;;;23.05;60.08;97840.44;5049543;28;20240;-31
2022/10/08 07:23:42;;;;;;;5.47;4.93;;;;;;;23.06;60.21;97841.28;5047550;28;20208;-31
2022/10/08 07:26:16;;;;;;;5.70;4.70;;;;;;;23.05;59.97;97843.00;5048467;28;20193;-31
2022/10/08 07:28:48;;;;;;;5.33;4.83;;;;;;;23.06;60.13;97851.56;5047560;28;20225;-31
2022/10/08 07:31:20;;;;;;;5.13;4.63;;;;;;;23.05;60.13;97855.84;5031344;28;20693;-31
2022/10/08 07:33:47;;;;;;;4.97;4.50;;;;;;;23.04;60.23;97848.94;5036955;28;20670;-32
2022/10/08 07:36:14;;;;;;;4.53;4.13;;;;;;;23.05;60.25;97853.28;5034163;28;20715;-31
2022/10/08 07:38:41;;;;;;;5.63;5.03;;;;;;;23.05;59.29;97849.81;5033954;28;20213;-31
2022/10/08 07:41:07;;;;;;;5.07;4.67;;;;;;;23.02;59.07;97850.63;5041435;28;20220;-31
2022/10/08 07:43:35;;;;;;;4.90;4.50;;;;;;;22.98;59.39;97847.91;5048551;28;20193;-31
2022/10/08 07:46:01;;;;;;;5.67;4.50;;;;;;;23.05;59.54;97857.50;5032203;28;20220;-31
2022/10/08 07:48:28;;;;;;;4.60;4.20;;;;;;;23.06;59.67;97867.81;5047536;28;20227;-31
2022/10/08 07:51:13;;;;;;;4.50;4.13;;;;;;;23.06;59.87;97861.81;5045695;28;20194;-31
2022/10/08 07:53:39;;;;;;;4.77;4.27;;;;;;;23.06;59.58;97867.81;5041140;28;20715;-31
2022/10/08 07:56:06;;;;;;;5.60;4.67;;;;;;;23.07;59.78;97866.13;5045888;28;20216;-31
2022/10/08 07:58:33;;;;;;;5.33;4.87;;;;;;;23.07;59.74;97873.81;5048566;28;20221;-32
2022/10/08 08:01:01;;;;;;;5.63;4.23;;;;;;;23.06;59.74;97866.94;5049578;28;20717;-32
2022/10/08 08:03:28;;;;;;;5.30;4.80;;;;;;;23.04;59.79;97869.44;5031409;28;20208;-31
2022/10/08 08:06:05;;;;;;;4.83;4.33;;;;;;;23.07;59.80;97884.06;5048843;28;20581;-31
2022/10/08 08:08:33;;;;;;;5.07;4.57;;;;;;;23.07;59.62;97887.47;5048397;28;20231;-31
2022/10/08 08:11:00;;;;;;;6.00;4.70;;;;;;;23.08;59.92;97890.94;5003249;28;20224;-31
2022/10/08 08:13:28;;;;;;;5.50;5.00;;;;;;;23.07;59.93;97879.78;4966800;28;20702;-31
2022/10/08 08:16:06;;;;;;;4.77;4.37;;;;;;;23.09;59.78;97885.84;4971588;28;20203;-31
2022/10/08 08:18:35;;;;;;;5.03;4.63;;;;;;;23.08;59.84;97885.81;4972352;28;20223;-31
2022/10/08 08:21:06;;;;;;;4.77;4.27;;;;;;;23.07;59.93;97884.06;4971575;28;20231;-31
2022/10/08 08:23:35;;;;;;;5.33;4.83;;;;;;;23.08;59.76;97886.69;4970883;28;20573;-31
2022/10/08 08:26:05;;;;;;;5.00;4.60;;;;;;;23.08;59.88;97891.81;4968515;28;20200;-31
2022/10/08 08:28:32;;;;;;;5.27;4.83;;;;;;;23.05;59.70;97894.28;4971470;28;20238;-31
2022/10/08 08:31:15;;;;;;;5.27;4.77;;;;;;;23.00;59.77;97887.25;4971631;28;20195;-31
2022/10/08 08:33:42;;;;;;;5.93;5.10;;;;;;;23.09;59.78;97897.78;4966145;28;20199;-31
2022/10/08 08:36:08;;;;;;;5.30;4.80;;;;;;;23.09;59.83;97905.47;4972481;28;20203;-31
2022/10/08 08:38:38;;;;;;;5.30;4.40;;;;;;;23.10;59.92;97904.69;4975310;28;20234;-31
2022/10/08 08:41:19;;;;;;;5.00;4.50;;;;;;;23.09;59.84;97902.91;4974666;28;20234;-31
2022/10/08 08:43:46;;;;;;;5.10;4.60;;;;;;;23.09;59.97;97897.78;4974392;28;20281;-31
2022/10/08 08:46:14;;;;;;;6.13;4.60;;;;;;;23.08;60.06;97896.94;4974236;28;20203;-31
2022/10/08 08:48:42;;;;;;;5.20;4.70;;;;;;;23.06;59.89;97887.44;4973682;28;20233;-31
2022/10/08 08:51:08;;;;;;;5.27;4.77;;;;;;;23.08;60.11;97901.19;4957306;28;20203;-31
2022/10/08 08:53:35;;;;;;;5.10;4.70;;;;;;;23.08;60.13;97894.38;4974057;28;20609;-31
2022/10/08 08:56:03;;;;;;;5.30;4.80;;;;;;;22.97;60.04;97876.91;4973550;28;20207;-31
2022/10/08 08:58:35;;;;;;;5.67;5.03;;;;;;;23.09;59.96;97900.34;4990563;28;20231;-31
2022/10/08 09:01:08;;;;;;;5.23;4.73;;;;;;;23.08;60.02;97896.06;4975562;28;20223;-31
2022/10/08 09:03:49;;;;;;;5.67;5.20;;;;;;;23.08;60.05;97896.94;4975623;28;20211;-31
2022/10/08 09:06:18;;;;;;;5.77;5.27;;;;;;;23.08;60.04;97901.19;4957786;28;20220;-31
2022/10/08 09:08:57;;;;;;;8.83;5.03;;;;;;;23.07;60.02;97899.47;4975313;28;20226;-31
2022/10/08 09:11:24;;;;;;;4.90;4.50;;;;;;;23.05;60.01;97898.53;4974033;28;20195;-31
2022/10/08 09:13:56;;;;;;;5.90;5.20;;;;;;;23.08;60.09;97908.88;4973791;28;20208;-31
2022/10/08 09:16:23;;;;;;;5.67;5.17;;;;;;;23.08;60.13;97906.31;4974254;28;20200;-31
2022/10/08 09:18:50;;;;;;;5.63;4.80;;;;;;;23.03;60.23;97895.03;4971268;28;20664;-31
2022/10/08 09:21:17;;;;;;;5.77;5.20;;;;;;;23.08;60.08;97902.06;4973304;28;20220;-31
2022/10/08 09:23:44;;;;;;;5.40;4.90;;;;;;;23.03;59.99;97895.03;4973407;28;20223;-31
2022/10/08 09:26:18;;;;;;;6.23;5.27;;;;;;;23.03;59.98;97892.47;4973552;28;20211;-31
2022/10/08 09:28:49;;;;;;;5.67;5.17;;;;;;;23.06;60.06;97901.13;4987934;28;20249;-31
2022/10/08 09:31:31;;;;;;;5.70;5.17;;;;;;;23.06;60.04;97903.69;4974198;28;20683;-31
2022/10/08 09:34:02;;;;;;;6.03;5.53;;;;;;;23.06;60.07;97908.84;4973773;28;20208;-31
2022/10/08 09:36:34;;;;;;;6.40;5.57;;;;;;;22.97;60.06;97894.88;4974024;28;20287;-32
2022/10/08 09:39:02;;;;;;;6.07;5.47;;;;;;;23.06;59.91;97907.94;4956349;28;20235;-31
2022/10/08 09:41:29;;;;;;;5.67;5.20;;;;;;;22.98;59.97;97899.19;4973286;28;20223;-31
2022/10/08 09:44:37;;;;;;;6.70;6.07;;;;;;;23.04;60.06;97912.19;4973324;28;20250;-31
2022/10/08 09:47:04;;;;;;;5.93;5.43;;;;;;;23.05;60.05;97919.91;4913387;29;20226;-32
2022/10/08 09:49:34;;;;;;;5.90;5.40;;;;;;;23.06;59.92;97919.09;4960094;28;20207;-31
2022/10/08 09:52:09;;;;;;;7.10;6.30;;;;;;;23.06;59.92;97916.53;4972764;28;20204;-31
2022/10/08 09:54:47;;;;;;;7.30;6.27;;;;;;;23.07;59.93;97912.28;4974744;28;20203;-31
2022/10/08 09:57:15;;;;;;;6.83;5.50;;;;;;;23.07;60.12;97908.00;4950221;28;20718;-31
2022/10/08 09:59:48;;;;;;;6.17;5.50;;;;;;;23.07;59.83;97908.00;4974207;28;20204;-31
2022/10/08 10:02:31;;;;;;;7.20;5.73;;;;;;;23.08;60.06;97901.19;5005100;28;20226;-31
2022/10/08 10:04:58;;;;;;;5.93;5.43;;;;;;;22.98;60.03;97888.94;4980905;28;20208;-31
2022/10/08 10:07:43;;;;;;;6.50;5.80;;;;;;;23.08;59.89;97916.56;4972401;28;20230;-33
2022/10/08 10:10:30;;;;;;;6.33;5.73;;;;;;;23.08;60.12;97908.88;4958175;28;20647;-31
2022/10/08 10:13:03;;;;;;;6.03;5.53;;;;;;;23.07;60.31;97902.88;4988538;28;20203;-31
2022/10/08 10:15:50;;;;;;;6.57;5.80;;;;;;;23.07;60.26;97908.00;4957059;28;20588;-31
2022/10/08 10:18:22;;;;;;;6.93;6.07;;;;;;;22.98;60.13;97896.63;4981996;28;20694;-31
2022/10/08 10:20:51;;;;;;;6.17;5.57;;;;;;;23.07;60.26;97913.13;4954490;28;20671;-31
2022/10/08 10:23:30;;;;;;;6.00;5.50;;;;;;;22.99;60.49;97888.97;4972568;28;20204;-31
2022/10/08 10:26:03;;;;;;;6.07;5.57;;;;;;;23.07;60.29;97910.56;4956581;28;20203;-31
2022/10/08 10:28:53;;;;;;;6.83;6.00;;;;;;;23.08;60.51;97914.88;4972053;28;20234;-31
2022/10/08 10:31:26;;;;;;;6.17;5.63;;;;;;;23.08;60.31;97911.44;4972212;28;20199;-31
2022/10/08 10:33:59;;;;;;;6.23;5.70;;;;;;;23.08;60.44;97911.44;4971606;28;20200;-31
2022/10/08 10:36:29;;;;;;;6.90;6.30;;;;;;;23.00;60.53;97890.72;4968878;28;20240;-31
2022/10/08 10:39:20;;;;;;;7.20;6.27;;;;;;;23.08;60.62;97908.88;4971841;28;20402;-31
2022/10/08 10:42:07;;;;;;;6.33;5.73;;;;;;;22.98;60.46;97889.78;4970763;28;20219;-31
2022/10/08 10:44:47;;;;;;;8.97;5.90;;;;;;;23.08;60.46;97896.06;4971699;28;20229;-31
2022/10/08 10:47:14;;;;;;;7.50;5.80;;;;;;;23.00;60.53;97884.69;4970662;28;20226;-31
2022/10/08 10:49:41;;;;;;;6.17;5.67;;;;;;;22.97;60.45;97874.34;4956945;28;20199;-31
2022/10/08 10:52:24;;;;;;;7.23;5.93;;;;;;;22.99;60.44;97878.72;4971333;28;20203;-31
2022/10/08 10:54:50;;;;;;;6.20;5.70;;;;;;;23.09;60.60;97893.53;4968923;28;20591;-31
2022/10/08 10:57:23;;;;;;;7.00;5.90;;;;;;;23.10;60.65;97894.41;4972964;28;20219;-31
2022/10/08 11:00:08;;;;;;;7.70;6.03;;;;;;;23.09;60.69;97895.22;4977591;28;20203;-31
2022/10/08 11:02:42;;;;;;;6.43;5.83;;;;;;;23.10;60.51;97903.00;4969097;28;20633;-32
2022/10/08 11:05:22;;;;;;;6.20;5.60;;;;;;;23.03;60.49;97885.66;4958454;28;20660;-31
2022/10/08 11:08:02;;;;;;;6.67;6.07;;;;;;;23.02;60.50;97873.69;4973987;28;20224;-31
2022/10/08 11:10:56;;;;;;;7.17;6.10;;;;;;;23.11;60.58;97891.03;4967040;28;20207;-31
2022/10/08 11:13:27;;;;;;;6.10;5.60;;;;;;;23.12;60.70;97895.34;4969428;28;20207;-31
2022/10/08 11:16:25;;;;;;;5.83;5.33;;;;;;;23.12;60.74;97893.63;4970834;28;20211;-31
2022/10/08 11:18:53;;;;;;;6.23;5.63;;;;;;;23.12;60.48;97891.06;4971999;28;20222;-32
2022/10/08 11:21:37;;;;;;;5.87;5.33;;;;;;;23.12;60.62;97882.53;4966879;28;20207;-32
2022/10/08 11:24:35;;;;;;;6.43;5.57;;;;;;;23.12;60.51;97885.94;4964417;28;20575;-31
2022/10/08 11:27:17;;;;;;;6.20;5.43;;;;;;;23.11;60.63;97880.75;4971796;28;20219;-32
2022/10/08 11:29:55;;;;;;;6.17;5.57;;;;;;;23.12;60.41;97883.38;4972338;28;20199;-31
2022/10/08 11:32:22;;;;;;;5.77;5.27;;;;;;;23.10;60.53;97873.91;4968917;28;20199;-31
2022/10/08 11:35:10;;;;;;;6.23;5.70;;;;;;;23.12;60.47;97882.53;4962849;28;20203;-31
2022/10/08 11:37:45;;;;;;;6.97;5.90;;;;;;;23.12;60.58;97877.41;4944132;28;20223;-31
2022/10/08 11:40:31;;;;;;;6.23;5.63;;;;;;;23.13;60.56;97868.88;4971503;28;20206;-31
2022/10/08 11:43:23;;;;;;;7.13;5.53;;;;;;;23.12;60.66;97873.13;4980378;28;20216;-31
2022/10/08 11:46:27;;;;;;;5.33;4.83;;;;;;;23.13;60.47;97866.31;4984376;28;20200;-31
2022/10/08 11:48:59;;;;;;;5.63;5.13;;;;;;;23.12;60.44;97867.13;4971727;28;20693;-31
2022/10/08 11:51:26;;;;;;;6.13;5.10;;;;;;;23.13;60.59;97866.31;4970318;28;20681;-31
2022/10/08 11:54:01;;;;;;;7.03;5.47;;;;;;;23.12;60.62;97865.41;4966637;28;20199;-31
2022/10/08 11:56:28;;;;;;;6.07;5.23;;;;;;;23.14;60.31;97868.91;4976554;28;20210;-31